Moline, Kansas
Current Conditions -  °F | °C
As of 9:15 AM on Friday 31 Oct 2014 (Local Time) from KIDP Reporting Station
Clear Clear  
Wind Chill: 31°   Ceiling: Unl
Heat Index: 41°   Visibility: 10mi
Dew Point: 30°   Wind: 23mph
Humidity: 65%   Direction: 10°N
Pressure: 30.43"   Gusts: 29mph
Location:  37.36°N, 96.3°W
Report Text: KIDP 311415Z AUTO 01020G25KT 10SM CLR 05/M01 A3043 RMK AO2
Loading
Personal Weather Stations






























Interactive Weather Map
Tropical Storm Tracking
New forecast layout! Learn more

10-Day Weather Forecast

Advertisements
Track Severe Weather on mobile